sensor_id;sensor_type;location;lat;lon;timestamp;P1;durP1;ratioP1;P2;durP2;ratioP2
69779;SDS011;57052;55.602;38.096;2022-10-31T00:02:23;1.33;;;0.50;;
69779;SDS011;57052;55.602;38.096;2022-10-31T00:04:49;1.40;;;0.47;;
69779;SDS011;57052;55.602;38.096;2022-10-31T00:07:15;2.80;;;0.65;;
69779;SDS011;57052;55.602;38.096;2022-10-31T00:09:40;1.52;;;0.43;;
69779;SDS011;57052;55.602;38.096;2022-10-31T00:12:06;3.10;;;0.57;;
69779;SDS011;57052;55.602;38.096;2022-10-31T00:14:31;0.65;;;0.43;;
69779;SDS011;57052;55.602;38.096;2022-10-31T00:16:57;0.73;;;0.50;;
69779;SDS011;57052;55.602;38.096;2022-10-31T00:19:23;1.02;;;0.40;;
69779;SDS011;57052;55.602;38.096;2022-10-31T00:21:48;1.77;;;0.50;;
69779;SDS011;57052;55.602;38.096;2022-10-31T00:24:17;1.15;;;0.45;;
69779;SDS011;57052;55.602;38.096;2022-10-31T00:26:42;1.23;;;0.65;;
69779;SDS011;57052;55.602;38.096;2022-10-31T00:29:08;1.33;;;0.45;;
69779;SDS011;57052;55.602;38.096;2022-10-31T00:31:33;1.73;;;0.50;;
69779;SDS011;57052;55.602;38.096;2022-10-31T00:33:59;1.05;;;0.60;;
69779;SDS011;57052;55.602;38.096;2022-10-31T00:36:25;2.97;;;0.80;;
69779;SDS011;57052;55.602;38.096;2022-10-31T00:38:50;0.40;;;0.40;;
69779;SDS011;57052;55.602;38.096;2022-10-31T00:41:17;1.10;;;0.50;;
69779;SDS011;57052;55.602;38.096;2022-10-31T00:43:42;0.82;;;0.50;;
69779;SDS011;57052;55.602;38.096;2022-10-31T00:46:09;1.48;;;0.40;;
69779;SDS011;57052;55.602;38.096;2022-10-31T00:48:35;0.40;;;0.40;;
69779;SDS011;57052;55.602;38.096;2022-10-31T00:51:01;1.45;;;0.52;;
69779;SDS011;57052;55.602;38.096;2022-10-31T00:53:27;0.13;;;0.13;;
69779;SDS011;57052;55.602;38.096;2022-10-31T00:55:52;1.83;;;0.45;;
69779;SDS011;57052;55.602;38.096;2022-10-31T00:58:18;0.98;;;0.50;;
69779;SDS011;57052;55.602;38.096;2022-10-31T01:00:46;1.58;;;0.40;;
69779;SDS011;57052;55.602;38.096;2022-10-31T01:03:20;0.95;;;0.30;;
69779;SDS011;57052;55.602;38.096;2022-10-31T01:05:54;2.30;;;0.60;;
69779;SDS011;57052;55.602;38.096;2022-10-31T01:08:21;2.45;;;0.60;;
69779;SDS011;57052;55.602;38.096;2022-10-31T01:10:57;3.20;;;0.50;;
69779;SDS011;57052;55.602;38.096;2022-10-31T01:13:42;0.73;;;0.40;;
69779;SDS011;57052;55.602;38.096;2022-10-31T01:16:10;0.28;;;0.20;;
69779;SDS011;57052;55.602;38.096;2022-10-31T01:18:37;1.73;;;0.35;;
69779;SDS011;57052;55.602;38.096;2022-10-31T01:23:34;0.73;;;0.50;;
69779;SDS011;57052;55.602;38.096;2022-10-31T01:28:49;0.47;;;0.30;;
69779;SDS011;57052;55.602;38.096;2022-10-31T01:31:17;0.70;;;0.32;;
69779;SDS011;57052;55.602;38.096;2022-10-31T01:33:44;0.90;;;0.60;;
69779;SDS011;57052;55.602;38.096;2022-10-31T01:36:15;2.35;;;0.40;;
69779;SDS011;57052;55.602;38.096;2022-10-31T01:38:41;1.55;;;0.50;;
69779;SDS011;57052;55.602;38.096;2022-10-31T01:41:07;0.90;;;0.35;;
69779;SDS011;57052;55.602;38.096;2022-10-31T01:52:01;0.40;;;0.30;;
69779;SDS011;57052;55.602;38.096;2022-10-31T01:57:04;2.58;;;0.40;;
69779;SDS011;57052;55.602;38.096;2022-10-31T01:59:34;0.65;;;0.40;;
69779;SDS011;57052;55.602;38.096;2022-10-31T02:02:04;1.08;;;0.50;;
69779;SDS011;57052;55.602;38.096;2022-10-31T02:04:31;2.53;;;0.50;;
69779;SDS011;57052;55.602;38.096;2022-10-31T02:07:03;1.23;;;0.60;;
69779;SDS011;57052;55.602;38.096;2022-10-31T02:09:33;1.52;;;0.50;;
69779;SDS011;57052;55.602;38.096;2022-10-31T02:12:02;0.93;;;0.60;;
69779;SDS011;57052;55.602;38.096;2022-10-31T02:14:29;0.75;;;0.40;;
69779;SDS011;57052;55.602;38.096;2022-10-31T02:16:56;3.90;;;0.60;;
69779;SDS011;57052;55.602;38.096;2022-10-31T02:19:26;2.63;;;0.43;;
69779;SDS011;57052;55.602;38.096;2022-10-31T02:22:44;0.85;;;0.50;;
69779;SDS011;57052;55.602;38.096;2022-10-31T02:25:12;1.25;;;0.40;;
69779;SDS011;57052;55.602;38.096;2022-10-31T02:33:30;2.15;;;0.70;;
69779;SDS011;57052;55.602;38.096;2022-10-31T02:41:46;1.10;;;0.52;;
69779;SDS011;57052;55.602;38.096;2022-10-31T02:44:38;3.65;;;0.60;;
69779;SDS011;57052;55.602;38.096;2022-10-31T02:47:14;0.47;;;0.30;;
69779;SDS011;57052;55.602;38.096;2022-10-31T02:49:48;3.80;;;0.45;;
69779;SDS011;57052;55.602;38.096;2022-10-31T02:52:20;5.50;;;0.75;;
69779;SDS011;57052;55.602;38.096;2022-10-31T02:54:47;0.90;;;0.50;;
69779;SDS011;57052;55.602;38.096;2022-10-31T02:57:13;1.58;;;0.70;;
69779;SDS011;57052;55.602;38.096;2022-10-31T02:59:44;1.63;;;0.77;;
69779;SDS011;57052;55.602;38.096;2022-10-31T03:04:58;1.55;;;0.80;;
69779;SDS011;57052;55.602;38.096;2022-10-31T03:13:24;2.00;;;0.70;;
69779;SDS011;57052;55.602;38.096;2022-10-31T03:17:12;1.77;;;0.70;;
69779;SDS011;57052;55.602;38.096;2022-10-31T03:19:17;2.03;;;0.70;;
69779;SDS011;57052;55.602;38.096;2022-10-31T03:21:55;1.05;;;0.60;;
69779;SDS011;57052;55.602;38.096;2022-10-31T03:24:28;1.08;;;0.52;;
69779;SDS011;57052;55.602;38.096;2022-10-31T03:26:57;1.83;;;0.70;;
69779;SDS011;57052;55.602;38.096;2022-10-31T03:29:27;1.55;;;0.70;;
69779;SDS011;57052;55.602;38.096;2022-10-31T03:40:36;1.67;;;0.75;;
69779;SDS011;57052;55.602;38.096;2022-10-31T03:43:12;1.50;;;0.70;;
69779;SDS011;57052;55.602;38.096;2022-10-31T03:45:43;2.63;;;0.88;;
69779;SDS011;57052;55.602;38.096;2022-10-31T03:48:11;2.10;;;0.90;;
69779;SDS011;57052;55.602;38.096;2022-10-31T03:59:04;2.25;;;1.10;;
69779;SDS011;57052;55.602;38.096;2022-10-31T04:01:31;1.73;;;1.00;;
69779;SDS011;57052;55.602;38.096;2022-10-31T04:03:59;3.45;;;1.27;;
69779;SDS011;57052;55.602;38.096;2022-10-31T04:06:27;2.10;;;0.85;;
69779;SDS011;57052;55.602;38.096;2022-10-31T04:09:02;4.80;;;0.98;;
69779;SDS011;57052;55.602;38.096;2022-10-31T04:11:31;1.50;;;0.82;;
69779;SDS011;57052;55.602;38.096;2022-10-31T04:14:01;1.98;;;1.10;;
69779;SDS011;57052;55.602;38.096;2022-10-31T04:16:28;1.25;;;1.00;;
69779;SDS011;57052;55.602;38.096;2022-10-31T04:18:54;3.47;;;1.10;;
69779;SDS011;57052;55.602;38.096;2022-10-31T04:21:25;1.90;;;1.10;;
69779;SDS011;57052;55.602;38.096;2022-10-31T04:23:53;2.93;;;1.10;;
69779;SDS011;57052;55.602;38.096;2022-10-31T04:26:18;2.13;;;1.27;;
69779;SDS011;57052;55.602;38.096;2022-10-31T04:28:44;4.32;;;1.20;;
69779;SDS011;57052;55.602;38.096;2022-10-31T04:31:10;2.03;;;1.00;;
69779;SDS011;57052;55.602;38.096;2022-10-31T04:33:36;3.40;;;1.13;;
69779;SDS011;57052;55.602;38.096;2022-10-31T04:36:03;2.40;;;1.10;;
69779;SDS011;57052;55.602;38.096;2022-10-31T04:38:32;1.15;;;0.88;;
69779;SDS011;57052;55.602;38.096;2022-10-31T04:40:58;2.50;;;1.20;;
69779;SDS011;57052;55.602;38.096;2022-10-31T04:43:24;2.88;;;1.02;;
69779;SDS011;57052;55.602;38.096;2022-10-31T04:48:43;1.67;;;0.95;;
69779;SDS011;57052;55.602;38.096;2022-10-31T04:51:08;3.60;;;1.10;;
69779;SDS011;57052;55.602;38.096;2022-10-31T04:53:34;1.73;;;0.90;;
69779;SDS011;57052;55.602;38.096;2022-10-31T04:56:00;2.70;;;1.05;;
69779;SDS011;57052;55.602;38.096;2022-10-31T04:58:26;1.92;;;0.93;;
69779;SDS011;57052;55.602;38.096;2022-10-31T05:00:53;2.63;;;1.00;;
69779;SDS011;57052;55.602;38.096;2022-10-31T05:03:19;1.77;;;1.00;;
69779;SDS011;57052;55.602;38.096;2022-10-31T05:05:45;2.45;;;1.00;;
69779;SDS011;57052;55.602;38.096;2022-10-31T05:08:10;1.50;;;0.80;;
69779;SDS011;57052;55.602;38.096;2022-10-31T05:10:36;1.63;;;1.20;;
69779;SDS011;57052;55.602;38.096;2022-10-31T05:13:02;2.53;;;1.13;;
69779;SDS011;57052;55.602;38.096;2022-10-31T05:15:29;3.92;;;1.77;;
69779;SDS011;57052;55.602;38.096;2022-10-31T05:17:55;2.42;;;1.02;;
69779;SDS011;57052;55.602;38.096;2022-10-31T05:20:22;3.67;;;1.20;;
69779;SDS011;57052;55.602;38.096;2022-10-31T05:22:50;3.58;;;1.10;;
69779;SDS011;57052;55.602;38.096;2022-10-31T05:25:17;3.08;;;1.20;;
69779;SDS011;57052;55.602;38.096;2022-10-31T05:27:45;3.28;;;1.08;;
69779;SDS011;57052;55.602;38.096;2022-10-31T05:30:13;1.80;;;1.02;;
69779;SDS011;57052;55.602;38.096;2022-10-31T05:32:43;2.08;;;1.00;;
69779;SDS011;57052;55.602;38.096;2022-10-31T05:35:11;2.35;;;1.17;;
69779;SDS011;57052;55.602;38.096;2022-10-31T05:37:43;1.48;;;0.93;;
69779;SDS011;57052;55.602;38.096;2022-10-31T05:40:09;3.42;;;1.15;;
69779;SDS011;57052;55.602;38.096;2022-10-31T05:42:41;2.05;;;1.10;;
69779;SDS011;57052;55.602;38.096;2022-10-31T05:45:12;3.33;;;1.13;;
69779;SDS011;57052;55.602;38.096;2022-10-31T05:47:39;1.42;;;1.00;;
69779;SDS011;57052;55.602;38.096;2022-10-31T05:50:06;2.63;;;1.10;;
69779;SDS011;57052;55.602;38.096;2022-10-31T05:52:33;2.85;;;1.10;;
69779;SDS011;57052;55.602;38.096;2022-10-31T05:54:59;1.35;;;1.02;;
69779;SDS011;57052;55.602;38.096;2022-10-31T05:57:25;2.05;;;1.05;;
69779;SDS011;57052;55.602;38.096;2022-10-31T05:59:50;4.22;;;1.33;;
69779;SDS011;57052;55.602;38.096;2022-10-31T06:02:19;2.95;;;1.30;;
69779;SDS011;57052;55.602;38.096;2022-10-31T06:04:45;2.85;;;1.08;;
69779;SDS011;57052;55.602;38.096;2022-10-31T06:07:11;1.25;;;0.93;;
69779;SDS011;57052;55.602;38.096;2022-10-31T06:09:37;4.78;;;1.30;;
69779;SDS011;57052;55.602;38.096;2022-10-31T06:12:03;1.73;;;1.13;;
69779;SDS011;57052;55.602;38.096;2022-10-31T06:14:28;2.75;;;1.20;;
69779;SDS011;57052;55.602;38.096;2022-10-31T06:16:54;4.43;;;1.00;;
69779;SDS011;57052;55.602;38.096;2022-10-31T06:19:20;2.08;;;1.20;;
69779;SDS011;57052;55.602;38.096;2022-10-31T06:21:46;4.20;;;1.60;;
69779;SDS011;57052;55.602;38.096;2022-10-31T06:24:12;3.58;;;1.20;;
69779;SDS011;57052;55.602;38.096;2022-10-31T06:26:38;2.75;;;1.40;;
69779;SDS011;57052;55.602;38.096;2022-10-31T06:29:04;1.90;;;1.20;;
69779;SDS011;57052;55.602;38.096;2022-10-31T06:31:29;3.70;;;1.45;;
69779;SDS011;57052;55.602;38.096;2022-10-31T06:33:55;2.13;;;1.23;;
69779;SDS011;57052;55.602;38.096;2022-10-31T06:36:24;2.58;;;1.75;;
69779;SDS011;57052;55.602;38.096;2022-10-31T06:38:52;4.13;;;1.70;;
69779;SDS011;57052;55.602;38.096;2022-10-31T06:41:18;3.63;;;1.58;;
69779;SDS011;57052;55.602;38.096;2022-10-31T06:43:46;3.50;;;1.80;;
69779;SDS011;57052;55.602;38.096;2022-10-31T06:46:12;3.80;;;1.60;;
69779;SDS011;57052;55.602;38.096;2022-10-31T06:48:37;4.40;;;1.52;;
69779;SDS011;57052;55.602;38.096;2022-10-31T06:51:05;4.07;;;1.70;;
69779;SDS011;57052;55.602;38.096;2022-10-31T06:53:30;3.03;;;1.50;;
69779;SDS011;57052;55.602;38.096;2022-10-31T06:55:56;2.92;;;1.48;;
69779;SDS011;57052;55.602;38.096;2022-10-31T06:58:22;1.95;;;1.20;;
69779;SDS011;57052;55.602;38.096;2022-10-31T07:00:48;2.15;;;1.08;;
69779;SDS011;57052;55.602;38.096;2022-10-31T07:03:13;2.13;;;1.20;;
69779;SDS011;57052;55.602;38.096;2022-10-31T07:05:41;2.72;;;1.08;;
69779;SDS011;57052;55.602;38.096;2022-10-31T07:08:08;3.10;;;1.30;;
69779;SDS011;57052;55.602;38.096;2022-10-31T07:10:36;2.63;;;1.20;;
69779;SDS011;57052;55.602;38.096;2022-10-31T07:13:04;3.92;;;1.55;;
69779;SDS011;57052;55.602;38.096;2022-10-31T07:15:35;3.40;;;1.40;;
69779;SDS011;57052;55.602;38.096;2022-10-31T07:18:03;5.45;;;1.88;;
69779;SDS011;57052;55.602;38.096;2022-10-31T07:20:30;5.13;;;1.70;;
69779;SDS011;57052;55.602;38.096;2022-10-31T07:22:57;3.15;;;1.25;;
69779;SDS011;57052;55.602;38.096;2022-10-31T07:25:24;6.45;;;1.30;;
69779;SDS011;57052;55.602;38.096;2022-10-31T07:27:50;1.52;;;1.00;;
69779;SDS011;57052;55.602;38.096;2022-10-31T07:30:16;2.15;;;1.20;;
69779;SDS011;57052;55.602;38.096;2022-10-31T07:32:44;3.08;;;1.15;;
69779;SDS011;57052;55.602;38.096;2022-10-31T07:35:14;3.03;;;1.10;;
69779;SDS011;57052;55.602;38.096;2022-10-31T07:37:43;4.25;;;1.30;;
69779;SDS011;57052;55.602;38.096;2022-10-31T07:40:09;2.90;;;1.13;;
69779;SDS011;57052;55.602;38.096;2022-10-31T07:42:36;3.13;;;1.17;;
69779;SDS011;57052;55.602;38.096;2022-10-31T07:45:09;3.42;;;1.67;;
69779;SDS011;57052;55.602;38.096;2022-10-31T07:47:40;1.80;;;1.00;;
69779;SDS011;57052;55.602;38.096;2022-10-31T07:50:28;2.95;;;1.10;;
69779;SDS011;57052;55.602;38.096;2022-10-31T07:53:02;2.70;;;1.40;;
69779;SDS011;57052;55.602;38.096;2022-10-31T07:55:29;2.00;;;0.95;;
69779;SDS011;57052;55.602;38.096;2022-10-31T07:57:59;3.10;;;1.33;;
69779;SDS011;57052;55.602;38.096;2022-10-31T08:00:25;2.13;;;1.10;;
69779;SDS011;57052;55.602;38.096;2022-10-31T08:05:24;1.77;;;1.10;;
69779;SDS011;57052;55.602;38.096;2022-10-31T08:07:50;1.98;;;1.10;;
69779;SDS011;57052;55.602;38.096;2022-10-31T08:10:15;2.35;;;1.35;;
69779;SDS011;57052;55.602;38.096;2022-10-31T08:12:41;3.38;;;1.60;;
69779;SDS011;57052;55.602;38.096;2022-10-31T08:15:07;3.08;;;1.35;;
69779;SDS011;57052;55.602;38.096;2022-10-31T08:17:37;2.60;;;1.50;;
69779;SDS011;57052;55.602;38.096;2022-10-31T08:20:03;3.25;;;1.60;;
69779;SDS011;57052;55.602;38.096;2022-10-31T08:22:30;3.25;;;1.45;;
69779;SDS011;57052;55.602;38.096;2022-10-31T08:24:55;2.50;;;1.33;;
69779;SDS011;57052;55.602;38.096;2022-10-31T08:27:21;3.40;;;1.60;;
69779;SDS011;57052;55.602;38.096;2022-10-31T08:29:47;3.15;;;1.52;;
69779;SDS011;57052;55.602;38.096;2022-10-31T08:32:13;2.33;;;1.38;;
69779;SDS011;57052;55.602;38.096;2022-10-31T08:34:39;3.08;;;1.40;;
69779;SDS011;57052;55.602;38.096;2022-10-31T08:37:04;2.17;;;1.25;;
69779;SDS011;57052;55.602;38.096;2022-10-31T08:39:30;3.75;;;1.27;;
69779;SDS011;57052;55.602;38.096;2022-10-31T08:41:55;3.33;;;1.27;;
69779;SDS011;57052;55.602;38.096;2022-10-31T08:44:21;2.85;;;1.38;;
69779;SDS011;57052;55.602;38.096;2022-10-31T08:46:47;2.20;;;1.02;;
69779;SDS011;57052;55.602;38.096;2022-10-31T08:49:12;2.45;;;1.08;;
69779;SDS011;57052;55.602;38.096;2022-10-31T08:51:38;2.50;;;1.27;;
69779;SDS011;57052;55.602;38.096;2022-10-31T08:54:04;2.50;;;1.30;;
69779;SDS011;57052;55.602;38.096;2022-10-31T08:56:29;1.95;;;1.27;;
69779;SDS011;57052;55.602;38.096;2022-10-31T08:58:55;1.90;;;1.30;;
69779;SDS011;57052;55.602;38.096;2022-10-31T09:01:21;2.03;;;1.10;;
69779;SDS011;57052;55.602;38.096;2022-10-31T09:03:46;2.30;;;1.30;;
69779;SDS011;57052;55.602;38.096;2022-10-31T09:06:12;2.97;;;1.10;;
69779;SDS011;57052;55.602;38.096;2022-10-31T09:08:38;2.10;;;1.05;;
69779;SDS011;57052;55.602;38.096;2022-10-31T09:11:03;1.75;;;1.00;;
69779;SDS011;57052;55.602;38.096;2022-10-31T09:13:29;2.03;;;0.90;;
69779;SDS011;57052;55.602;38.096;2022-10-31T09:15:55;2.00;;;1.05;;
69779;SDS011;57052;55.602;38.096;2022-10-31T09:18:23;1.08;;;0.90;;
69779;SDS011;57052;55.602;38.096;2022-10-31T09:20:49;2.55;;;1.00;;
69779;SDS011;57052;55.602;38.096;2022-10-31T09:23:17;2.15;;;0.90;;
69779;SDS011;57052;55.602;38.096;2022-10-31T09:25:44;2.35;;;1.20;;
69779;SDS011;57052;55.602;38.096;2022-10-31T09:28:12;1.88;;;0.93;;
69779;SDS011;57052;55.602;38.096;2022-10-31T09:30:38;3.22;;;1.00;;
69779;SDS011;57052;55.602;38.096;2022-10-31T09:33:05;1.70;;;0.90;;
69779;SDS011;57052;55.602;38.096;2022-10-31T09:35:33;2.80;;;1.05;;
69779;SDS011;57052;55.602;38.096;2022-10-31T09:38:04;3.58;;;1.20;;
69779;SDS011;57052;55.602;38.096;2022-10-31T09:51:38;2.63;;;1.50;;
69779;SDS011;57052;55.602;38.096;2022-10-31T09:54:21;2.35;;;1.23;;
69779;SDS011;57052;55.602;38.096;2022-10-31T09:57:00;2.70;;;1.33;;
69779;SDS011;57052;55.602;38.096;2022-10-31T09:59:30;5.22;;;2.38;;
69779;SDS011;57052;55.602;38.096;2022-10-31T10:02:00;1.83;;;1.15;;
69779;SDS011;57052;55.602;38.096;2022-10-31T10:04:31;3.85;;;1.20;;
69779;SDS011;57052;55.602;38.096;2022-10-31T10:07:07;2.33;;;1.15;;
69779;SDS011;57052;55.602;38.096;2022-10-31T10:09:39;3.42;;;1.20;;
69779;SDS011;57052;55.602;38.096;2022-10-31T10:25:50;2.72;;;1.40;;
69779;SDS011;57052;55.602;38.096;2022-10-31T10:28:25;2.70;;;1.27;;
69779;SDS011;57052;55.602;38.096;2022-10-31T10:31:05;3.42;;;1.40;;
69779;SDS011;57052;55.602;38.096;2022-10-31T10:33:40;4.22;;;1.60;;
69779;SDS011;57052;55.602;38.096;2022-10-31T10:39:10;3.08;;;1.42;;
69779;SDS011;57052;55.602;38.096;2022-10-31T10:41:41;3.13;;;1.40;;
69779;SDS011;57052;55.602;38.096;2022-10-31T10:44:12;3.08;;;1.60;;
69779;SDS011;57052;55.602;38.096;2022-10-31T10:46:42;3.40;;;1.48;;
69779;SDS011;57052;55.602;38.096;2022-10-31T10:52:21;2.78;;;1.42;;
69779;SDS011;57052;55.602;38.096;2022-10-31T11:00:31;2.42;;;1.17;;
69779;SDS011;57052;55.602;38.096;2022-10-31T11:03:00;2.88;;;1.33;;
69779;SDS011;57052;55.602;38.096;2022-10-31T11:05:28;3.67;;;1.35;;
69779;SDS011;57052;55.602;38.096;2022-10-31T11:08:01;1.90;;;1.10;;
69779;SDS011;57052;55.602;38.096;2022-10-31T11:10:27;1.98;;;1.20;;
69779;SDS011;57052;55.602;38.096;2022-10-31T11:13:02;3.88;;;1.17;;
69779;SDS011;57052;55.602;38.096;2022-10-31T11:15:27;2.33;;;1.10;;
69779;SDS011;57052;55.602;38.096;2022-10-31T11:17:56;2.95;;;1.20;;
69779;SDS011;57052;55.602;38.096;2022-10-31T11:20:30;2.00;;;1.00;;
69779;SDS011;57052;55.602;38.096;2022-10-31T11:23:01;9.18;;;1.58;;
69779;SDS011;57052;55.602;38.096;2022-10-31T11:25:58;3.10;;;1.30;;
69779;SDS011;57052;55.602;38.096;2022-10-31T11:28:27;2.22;;;1.00;;
69779;SDS011;57052;55.602;38.096;2022-10-31T11:31:01;1.42;;;0.90;;
69779;SDS011;57052;55.602;38.096;2022-10-31T11:34:06;5.03;;;0.90;;
69779;SDS011;57052;55.602;38.096;2022-10-31T11:38:54;1.50;;;0.80;;
69779;SDS011;57052;55.602;38.096;2022-10-31T11:41:33;3.75;;;1.08;;
69779;SDS011;57052;55.602;38.096;2022-10-31T11:46:38;1.48;;;0.73;;
69779;SDS011;57052;55.602;38.096;2022-10-31T11:49:13;2.78;;;0.90;;
69779;SDS011;57052;55.602;38.096;2022-10-31T11:51:46;1.75;;;0.98;;
69779;SDS011;57052;55.602;38.096;2022-10-31T11:57:30;1.60;;;0.70;;
69779;SDS011;57052;55.602;38.096;2022-10-31T11:59:59;1.77;;;1.10;;
69779;SDS011;57052;55.602;38.096;2022-10-31T12:02:26;1.83;;;1.13;;
69779;SDS011;57052;55.602;38.096;2022-10-31T12:04:58;2.13;;;1.10;;
69779;SDS011;57052;55.602;38.096;2022-10-31T12:07:26;2.72;;;1.33;;
69779;SDS011;57052;55.602;38.096;2022-10-31T12:09:51;4.47;;;1.35;;
69779;SDS011;57052;55.602;38.096;2022-10-31T12:26:20;3.15;;;1.10;;
69779;SDS011;57052;55.602;38.096;2022-10-31T12:40:00;1.98;;;0.80;;
69779;SDS011;57052;55.602;38.096;2022-10-31T12:59:40;2.75;;;1.10;;
69779;SDS011;57052;55.602;38.096;2022-10-31T13:10:16;3.33;;;1.20;;
69779;SDS011;57052;55.602;38.096;2022-10-31T13:12:46;7.75;;;1.98;;
69779;SDS011;57052;55.602;38.096;2022-10-31T13:15:25;3.83;;;1.30;;
69779;SDS011;57052;55.602;38.096;2022-10-31T13:17:56;2.88;;;1.30;;
69779;SDS011;57052;55.602;38.096;2022-10-31T13:23:17;2.70;;;1.38;;
69779;SDS011;57052;55.602;38.096;2022-10-31T13:25:49;2.58;;;1.35;;
69779;SDS011;57052;55.602;38.096;2022-10-31T13:30:43;2.92;;;1.50;;
69779;SDS011;57052;55.602;38.096;2022-10-31T13:33:12;3.33;;;1.45;;
69779;SDS011;57052;55.602;38.096;2022-10-31T13:38:36;3.33;;;1.40;;
69779;SDS011;57052;55.602;38.096;2022-10-31T13:46:40;3.28;;;1.52;;
69779;SDS011;57052;55.602;38.096;2022-10-31T13:54:36;2.28;;;1.40;;
69779;SDS011;57052;55.602;38.096;2022-10-31T13:57:02;2.75;;;1.17;;
69779;SDS011;57052;55.602;38.096;2022-10-31T13:59:32;2.22;;;1.30;;
69779;SDS011;57052;55.602;38.096;2022-10-31T14:02:12;2.03;;;1.20;;
69779;SDS011;57052;55.602;38.096;2022-10-31T14:04:48;3.03;;;1.30;;
69779;SDS011;57052;55.602;38.096;2022-10-31T14:07:18;2.17;;;1.30;;
69779;SDS011;57052;55.602;38.096;2022-10-31T14:12:34;2.22;;;1.20;;
69779;SDS011;57052;55.602;38.096;2022-10-31T14:15:05;2.90;;;1.50;;
69779;SDS011;57052;55.602;38.096;2022-10-31T14:17:48;4.15;;;1.80;;
69779;SDS011;57052;55.602;38.096;2022-10-31T14:22:41;2.78;;;1.45;;
69779;SDS011;57052;55.602;38.096;2022-10-31T14:27:51;2.72;;;1.27;;
69779;SDS011;57052;55.602;38.096;2022-10-31T14:30:22;2.60;;;1.40;;
69779;SDS011;57052;55.602;38.096;2022-10-31T14:32:50;4.38;;;1.50;;
69779;SDS011;57052;55.602;38.096;2022-10-31T14:35:20;5.43;;;2.20;;
69779;SDS011;57052;55.602;38.096;2022-10-31T14:38:08;3.28;;;1.50;;
69779;SDS011;57052;55.602;38.096;2022-10-31T14:40:48;3.60;;;1.20;;
69779;SDS011;57052;55.602;38.096;2022-10-31T14:46:13;3.13;;;1.52;;
69779;SDS011;57052;55.602;38.096;2022-10-31T14:51:36;2.90;;;1.30;;
69779;SDS011;57052;55.602;38.096;2022-10-31T14:54:06;2.88;;;1.10;;
69779;SDS011;57052;55.602;38.096;2022-10-31T14:56:40;1.67;;;1.00;;
69779;SDS011;57052;55.602;38.096;2022-10-31T14:59:15;1.60;;;0.90;;
69779;SDS011;57052;55.602;38.096;2022-10-31T15:01:51;2.35;;;0.90;;
69779;SDS011;57052;55.602;38.096;2022-10-31T15:04:23;2.10;;;1.10;;
69779;SDS011;57052;55.602;38.096;2022-10-31T15:09:59;5.32;;;1.98;;
69779;SDS011;57052;55.602;38.096;2022-10-31T15:12:31;3.10;;;1.38;;
69779;SDS011;57052;55.602;38.096;2022-10-31T15:15:12;4.88;;;1.17;;
69779;SDS011;57052;55.602;38.096;2022-10-31T15:17:41;2.72;;;1.10;;
69779;SDS011;57052;55.602;38.096;2022-10-31T15:20:22;2.28;;;1.15;;
69779;SDS011;57052;55.602;38.096;2022-10-31T15:22:51;3.00;;;1.20;;
69779;SDS011;57052;55.602;38.096;2022-10-31T15:25:22;2.97;;;1.40;;
69779;SDS011;57052;55.602;38.096;2022-10-31T15:27:51;2.28;;;1.15;;
69779;SDS011;57052;55.602;38.096;2022-10-31T15:30:24;3.92;;;1.05;;
69779;SDS011;57052;55.602;38.096;2022-10-31T15:32:57;1.95;;;1.10;;
69779;SDS011;57052;55.602;38.096;2022-10-31T15:35:26;2.10;;;1.10;;
69779;SDS011;57052;55.602;38.096;2022-10-31T15:37:54;3.03;;;1.30;;
69779;SDS011;57052;55.602;38.096;2022-10-31T15:40:21;3.38;;;1.50;;
69779;SDS011;57052;55.602;38.096;2022-10-31T15:43:10;3.15;;;1.30;;
69779;SDS011;57052;55.602;38.096;2022-10-31T15:45:41;1.88;;;1.10;;
69779;SDS011;57052;55.602;38.096;2022-10-31T15:48:18;2.50;;;1.10;;
69779;SDS011;57052;55.602;38.096;2022-10-31T15:50:56;1.55;;;1.00;;
69779;SDS011;57052;55.602;38.096;2022-10-31T15:53:26;2.83;;;1.02;;
69779;SDS011;57052;55.602;38.096;2022-10-31T15:55:58;1.77;;;0.90;;
69779;SDS011;57052;55.602;38.096;2022-10-31T15:58:27;2.08;;;1.08;;
69779;SDS011;57052;55.602;38.096;2022-10-31T16:01:01;2.45;;;1.00;;
69779;SDS011;57052;55.602;38.096;2022-10-31T16:03:32;1.55;;;0.90;;
69779;SDS011;57052;55.602;38.096;2022-10-31T16:08:34;1.77;;;0.85;;
69779;SDS011;57052;55.602;38.096;2022-10-31T16:13:33;3.22;;;0.80;;
69779;SDS011;57052;55.602;38.096;2022-10-31T16:16:12;0.98;;;0.75;;
69779;SDS011;57052;55.602;38.096;2022-10-31T16:18:40;4.32;;;0.90;;
69779;SDS011;57052;55.602;38.096;2022-10-31T16:21:07;1.67;;;0.98;;
69779;SDS011;57052;55.602;38.096;2022-10-31T16:23:34;1.63;;;0.90;;
69779;SDS011;57052;55.602;38.096;2022-10-31T16:26:06;2.47;;;1.00;;
69779;SDS011;57052;55.602;38.096;2022-10-31T16:28:33;2.60;;;0.80;;
69779;SDS011;57052;55.602;38.096;2022-10-31T16:31:00;1.17;;;0.73;;
69779;SDS011;57052;55.602;38.096;2022-10-31T16:36:28;2.88;;;0.90;;
69779;SDS011;57052;55.602;38.096;2022-10-31T16:38:55;1.40;;;0.93;;
69779;SDS011;57052;55.602;38.096;2022-10-31T16:41:21;2.22;;;1.20;;
69779;SDS011;57052;55.602;38.096;2022-10-31T16:43:48;1.48;;;1.00;;
69779;SDS011;57052;55.602;38.096;2022-10-31T16:46:14;1.50;;;0.70;;
69779;SDS011;57052;55.602;38.096;2022-10-31T16:48:43;1.52;;;0.80;;
69779;SDS011;57052;55.602;38.096;2022-10-31T16:51:09;3.08;;;1.00;;
69779;SDS011;57052;55.602;38.096;2022-10-31T16:53:34;3.72;;;1.10;;
69779;SDS011;57052;55.602;38.096;2022-10-31T16:56:02;1.63;;;0.82;;
69779;SDS011;57052;55.602;38.096;2022-10-31T16:58:32;1.52;;;0.95;;
69779;SDS011;57052;55.602;38.096;2022-10-31T17:01:00;1.63;;;0.95;;
69779;SDS011;57052;55.602;38.096;2022-10-31T17:03:26;1.25;;;0.90;;
69779;SDS011;57052;55.602;38.096;2022-10-31T17:05:52;2.35;;;1.17;;
69779;SDS011;57052;55.602;38.096;2022-10-31T17:08:20;1.73;;;0.93;;
69779;SDS011;57052;55.602;38.096;2022-10-31T17:10:46;1.60;;;0.85;;
69779;SDS011;57052;55.602;38.096;2022-10-31T17:13:33;1.60;;;0.80;;
69779;SDS011;57052;55.602;38.096;2022-10-31T17:16:00;1.42;;;0.80;;
69779;SDS011;57052;55.602;38.096;2022-10-31T17:18:27;3.85;;;0.82;;
69779;SDS011;57052;55.602;38.096;2022-10-31T17:20:57;1.55;;;0.80;;
69779;SDS011;57052;55.602;38.096;2022-10-31T17:23:24;1.65;;;0.88;;
69779;SDS011;57052;55.602;38.096;2022-10-31T17:25:50;2.38;;;0.90;;
69779;SDS011;57052;55.602;38.096;2022-10-31T17:28:16;1.50;;;0.88;;
69779;SDS011;57052;55.602;38.096;2022-10-31T17:30:42;1.33;;;0.70;;
69779;SDS011;57052;55.602;38.096;2022-10-31T17:33:10;1.85;;;0.85;;
69779;SDS011;57052;55.602;38.096;2022-10-31T17:35:37;1.52;;;0.80;;
69779;SDS011;57052;55.602;38.096;2022-10-31T17:38:02;2.72;;;1.00;;
69779;SDS011;57052;55.602;38.096;2022-10-31T17:40:29;1.13;;;0.90;;
69779;SDS011;57052;55.602;38.096;2022-10-31T17:42:56;0.98;;;0.73;;
69779;SDS011;57052;55.602;38.096;2022-10-31T17:45:22;2.63;;;0.85;;
69779;SDS011;57052;55.602;38.096;2022-10-31T17:47:50;2.85;;;0.80;;
69779;SDS011;57052;55.602;38.096;2022-10-31T17:50:17;1.95;;;1.00;;
69779;SDS011;57052;55.602;38.096;2022-10-31T17:52:47;2.92;;;1.10;;
69779;SDS011;57052;55.602;38.096;2022-10-31T17:55:13;2.03;;;1.00;;
69779;SDS011;57052;55.602;38.096;2022-10-31T17:57:42;0.98;;;0.75;;
69779;SDS011;57052;55.602;38.096;2022-10-31T18:00:10;1.30;;;0.70;;
69779;SDS011;57052;55.602;38.096;2022-10-31T18:02:39;1.23;;;0.80;;
69779;SDS011;57052;55.602;38.096;2022-10-31T18:05:05;3.78;;;1.27;;